createdAt,value
2018-10-17T00:00:25.166Z,101636.16
2018-10-17T00:01:28.182Z,101639.30
2018-10-17T00:02:30.822Z,101635.30
2018-10-17T00:03:33.501Z,101645.02
2018-10-17T00:04:36.177Z,101646.35
2018-10-17T00:05:38.822Z,101637.00
2018-10-17T00:06:41.582Z,101639.30
2018-10-17T00:07:44.225Z,101637.97
2018-10-17T00:08:46.926Z,101634.83
2018-10-17T00:09:49.579Z,101629.95
2018-10-17T00:10:52.280Z,101644.55
2018-10-17T00:11:55.278Z,101637.00
2018-10-17T00:12:57.983Z,101637.00
2018-10-17T00:14:00.654Z,101635.19
2018-10-17T00:15:03.382Z,101630.81
2018-10-17T00:16:06.174Z,101629.48
2018-10-17T00:17:09.245Z,101634.83
2018-10-17T00:18:11.830Z,101634.33
2018-10-17T00:19:14.517Z,101633.48
2018-10-17T00:20:17.147Z,101635.19
2018-10-17T00:21:19.798Z,101637.36
2018-10-17T00:22:22.790Z,101626.67
2018-10-17T00:23:25.430Z,101629.70
2018-10-17T00:24:28.086Z,101628.00
2018-10-17T00:25:30.729Z,101622.66
2018-10-17T00:26:33.362Z,101624.36
2018-10-17T00:27:36.336Z,101618.64
2018-10-17T00:28:38.985Z,101619.52
2018-10-17T00:29:41.641Z,101619.87
2018-10-17T00:30:44.278Z,101615.00
2018-10-17T00:31:46.921Z,101619.87
2018-10-17T00:32:49.642Z,101619.41
2018-10-17T00:33:52.294Z,101624.25
2018-10-17T00:34:54.963Z,101619.87
2018-10-17T00:35:57.630Z,101613.66
2018-10-17T00:37:00.304Z,101617.20
2018-10-17T00:38:03.006Z,101616.73
2018-10-17T00:39:07.453Z,101610.05
2018-10-17T00:40:10.143Z,101608.71
2018-10-17T00:41:12.908Z,101612.22
2018-10-17T00:42:15.509Z,101619.41
2018-10-17T00:43:18.319Z,101611.85
2018-10-17T00:44:20.901Z,101602.97
2018-10-17T00:45:23.540Z,101598.95
2018-10-17T00:46:26.253Z,101596.79
2018-10-17T00:47:28.906Z,101598.84
2018-10-17T00:48:31.638Z,101588.27
2018-10-17T00:49:34.277Z,101585.98
2018-10-17T00:50:36.958Z,101585.59
2018-10-17T00:51:39.606Z,101578.44
2018-10-17T00:52:42.233Z,101571.75
2018-10-17T00:53:44.923Z,101575.76
2018-10-17T00:54:47.556Z,101563.84
2018-10-17T00:55:50.218Z,101569.94
2018-10-17T00:56:52.857Z,101569.94
2018-10-17T00:57:55.509Z,101574.79
2018-10-17T00:59:14.991Z,101569.08
2018-10-17T01:00:17.578Z,101566.30
2018-10-17T01:01:20.250Z,101566.30
2018-10-17T01:02:22.906Z,101562.75
2018-10-17T01:03:25.570Z,101553.91
2018-10-17T01:04:28.298Z,101559.72
2018-10-17T01:05:30.950Z,101555.70
2018-10-17T01:06:34.054Z,101559.25
2018-10-17T01:07:36.730Z,101561.06
2018-10-17T01:08:39.366Z,101561.92
2018-10-17T01:09:42.001Z,101558.74
2018-10-17T01:10:44.662Z,101554.38
2018-10-17T01:11:47.304Z,101553.91
2018-10-17T01:12:49.946Z,101554.27
2018-10-17T01:13:52.629Z,101561.92
2018-10-17T01:14:55.291Z,101559.25
2018-10-17T01:15:57.962Z,101566.30
2018-10-17T01:17:00.604Z,101566.30
2018-10-17T01:18:03.274Z,101566.30
2018-10-17T01:19:06.247Z,101569.33
2018-10-17T01:20:09.289Z,101568.97
2018-10-17T01:21:11.942Z,101570.67
2018-10-17T01:22:14.590Z,101569.33
2018-10-17T01:23:17.364Z,101566.16
2018-10-17T01:24:19.994Z,101561.31
2018-10-17T01:25:22.644Z,101554.63
2018-10-17T01:26:25.286Z,101556.80
2018-10-17T01:27:27.961Z,101554.63
2018-10-17T01:28:30.609Z,101546.97
2018-10-17T01:29:33.238Z,101550.11
2018-10-17T01:30:35.989Z,101547.94
2018-10-17T01:31:38.648Z,101546.61
2018-10-17T01:32:41.290Z,101544.29
2018-10-17T01:33:43.918Z,101537.61
2018-10-17T01:34:46.556Z,101529.59
2018-10-17T01:35:49.266Z,101537.61
2018-10-17T01:36:52.007Z,101537.61
2018-10-17T01:37:54.726Z,101535.41
2018-10-17T01:38:57.497Z,101531.90
2018-10-17T01:40:00.250Z,101538.08
2018-10-17T01:41:03.061Z,101530.56
2018-10-17T01:42:06.101Z,101529.23
2018-10-17T01:43:08.949Z,101534.43
2018-10-17T01:44:11.618Z,101528.25
2018-10-17T01:45:14.342Z,101528.72
2018-10-17T01:46:17.118Z,101528.61
2018-10-17T01:47:19.940Z,101530.92
2018-10-17T01:48:22.658Z,101529.59
2018-10-17T01:49:25.394Z,101528.25
2018-10-17T01:50:28.158Z,101530.31
2018-10-17T01:51:30.950Z,101526.77
2018-10-17T01:52:33.682Z,101526.77
2018-10-17T01:53:36.404Z,101521.93
2018-10-17T01:54:39.159Z,101526.30
2018-10-17T01:55:41.918Z,101515.25
2018-10-17T01:56:44.721Z,101515.60
2018-10-17T01:57:47.455Z,101511.59
2018-10-17T01:58:50.204Z,101505.88
2018-10-17T01:59:52.914Z,101510.73
2018-10-17T02:00:55.966Z,101505.02
2018-10-17T02:01:58.714Z,101502.70
2018-10-17T02:03:01.446Z,101503.58
2018-10-17T02:04:04.330Z,101500.90
2018-10-17T02:05:07.338Z,101497.72
2018-10-17T02:06:10.039Z,101493.23
2018-10-17T02:07:12.847Z,101494.21
2018-10-17T02:08:15.506Z,101495.55
2018-10-17T02:09:18.310Z,101492.02
2018-10-17T02:10:21.038Z,101499.06
2018-10-17T02:11:23.774Z,101490.67
2018-10-17T02:12:26.533Z,101492.88
2018-10-17T02:13:29.286Z,101491.54
2018-10-17T02:14:32.004Z,101491.66
2018-10-17T02:15:34.749Z,101483.63
2018-10-17T02:16:37.475Z,101486.20
2018-10-17T02:17:40.195Z,101481.82
2018-10-17T02:18:42.928Z,101483.52
2018-10-17T02:19:45.649Z,101485.83
2018-10-17T02:20:48.526Z,101481.46
2018-10-17T02:21:51.182Z,101483.52
2018-10-17T02:22:53.863Z,101473.91
2018-10-17T02:23:56.505Z,101478.64
2018-10-17T02:24:59.243Z,101483.16
2018-10-17T02:26:01.972Z,101480.95
2018-10-17T02:27:04.668Z,101477.45
2018-10-17T02:28:07.366Z,101478.79
2018-10-17T02:29:10.093Z,101476.83
2018-10-17T02:30:12.786Z,101475.97
2018-10-17T02:31:15.485Z,101473.80
2018-10-17T02:32:19.360Z,101450.37
2018-10-17T02:33:22.063Z,101469.28
2018-10-17T02:34:24.706Z,101461.41
2018-10-17T02:35:27.347Z,101470.15
2018-10-17T02:36:29.986Z,101470.77
2018-10-17T02:37:32.646Z,101470.15
2018-10-17T02:38:35.290Z,101466.61
2018-10-17T02:39:37.978Z,101469.17
2018-10-17T02:40:40.706Z,101467.48
2018-10-17T02:41:43.338Z,101470.63
2018-10-17T02:42:45.995Z,101472.31
2018-10-17T02:43:48.658Z,101473.66
2018-10-17T02:44:51.306Z,101479.87
2018-10-17T02:45:54.005Z,101479.87
2018-10-17T02:46:56.711Z,101478.03
2018-10-17T02:47:59.354Z,101475.86
2018-10-17T02:49:02.031Z,101478.89
2018-10-17T02:50:07.582Z,101470.98
2018-10-17T02:51:10.286Z,101477.20
2018-10-17T02:52:12.940Z,101480.70
2018-10-17T02:53:15.645Z,101480.23
2018-10-17T02:54:18.255Z,101474.52
2018-10-17T02:55:20.911Z,101474.88
2018-10-17T02:56:23.606Z,101477.92
2018-10-17T02:57:37.750Z,101479.87
2018-10-17T02:58:40.390Z,101476.58
2018-10-17T02:59:43.027Z,101481.92
2018-10-17T03:00:45.694Z,101481.92
2018-10-17T03:01:48.475Z,101476.58
2018-10-17T03:02:51.115Z,101484.60
2018-10-17T03:03:53.754Z,101485.08
2018-10-17T03:04:56.450Z,101479.61
2018-10-17T03:05:59.087Z,101476.58
2018-10-17T03:07:01.888Z,101472.56
2018-10-17T03:08:04.859Z,101471.23
2018-10-17T03:09:08.383Z,101476.94
2018-10-17T03:10:11.031Z,101476.08
2018-10-17T03:11:13.701Z,101481.42
2018-10-17T03:12:16.410Z,101473.91
2018-10-17T03:13:19.104Z,101473.77
2018-10-17T03:14:21.747Z,101472.56
2018-10-17T03:15:24.382Z,101470.73
2018-10-17T03:16:27.083Z,101464.05
2018-10-17T03:17:29.738Z,101455.19
2018-10-17T03:18:32.399Z,101460.39
2018-10-17T03:19:35.054Z,101461.61
2018-10-17T03:20:37.958Z,101456.63
2018-10-17T03:21:40.603Z,101457.82
2018-10-17T03:22:43.291Z,101458.18
2018-10-17T03:23:45.943Z,101465.47
2018-10-17T03:24:48.610Z,101457.92
2018-10-17T03:25:51.266Z,101458.17
2018-10-17T03:26:53.900Z,101450.26
2018-10-17T03:27:56.722Z,101456.58
2018-10-17T03:28:59.299Z,101450.75
2018-10-17T03:30:01.991Z,101458.63
2018-10-17T03:31:04.772Z,101458.02
2018-10-17T03:32:07.546Z,101457.66
2018-10-17T03:33:10.188Z,101447.31
2018-10-17T03:34:13.087Z,101450.70
2018-10-17T03:35:15.817Z,101442.83
2018-10-17T03:36:18.410Z,101440.01
2018-10-17T03:37:21.047Z,101436.00
2018-10-17T03:38:23.711Z,101437.33
2018-10-17T03:39:26.361Z,101434.66
2018-10-17T03:40:29.014Z,101429.81
2018-10-17T03:41:31.659Z,101437.33
2018-10-17T03:42:34.334Z,101431.98
2018-10-17T03:43:36.970Z,101435.64
2018-10-17T03:44:39.612Z,101430.79
2018-10-17T03:45:42.278Z,101429.93
2018-10-17T03:46:44.914Z,101431.27
2018-10-17T03:47:47.563Z,101430.44
2018-10-17T03:48:50.242Z,101423.39
2018-10-17T03:49:52.983Z,101422.88
2018-10-17T03:50:55.574Z,101410.48
2018-10-17T03:51:58.240Z,101407.81
2018-10-17T03:53:00.949Z,101413.78
2018-10-17T03:54:03.663Z,101413.16
2018-10-17T03:55:06.377Z,101407.34
2018-10-17T03:56:09.014Z,101406.48
2018-10-17T03:57:11.682Z,101402.46
2018-10-17T03:58:14.323Z,101396.76
2018-10-17T03:59:17.146Z,101396.76
2018-10-17T04:00:19.711Z,101396.28
2018-10-17T04:01:22.375Z,101388.38
2018-10-17T04:02:25.034Z,101393.72
2018-10-17T04:03:27.682Z,101393.72
2018-10-17T04:04:30.330Z,101387.55
2018-10-17T04:05:32.987Z,101389.86
2018-10-17T04:06:35.635Z,101382.78
2018-10-17T04:07:38.274Z,101386.32
2018-10-17T04:08:40.910Z,101373.92
2018-10-17T04:09:43.649Z,101361.53
2018-10-17T04:10:46.289Z,101365.55
2018-10-17T04:11:48.931Z,101365.55
2018-10-17T04:12:51.616Z,101363.84
2018-10-17T04:13:54.282Z,101360.81
2018-10-17T04:14:56.983Z,101366.53
2018-10-17T04:15:59.659Z,101367.36
2018-10-17T04:17:02.384Z,101367.86
2018-10-17T04:18:05.228Z,101367.98
2018-10-17T04:19:07.984Z,101379.18
2018-10-17T04:20:10.633Z,101386.22
2018-10-17T04:21:13.291Z,101395.59
2018-10-17T04:22:15.942Z,101399.95
2018-10-17T04:23:18.655Z,101401.65
2018-10-17T04:24:21.260Z,101396.66
2018-10-17T04:25:24.282Z,101386.80
2018-10-17T04:26:27.199Z,101391.78
2018-10-17T04:27:29.850Z,101396.04
2018-10-17T04:28:32.500Z,101395.68
2018-10-17T04:29:35.203Z,101400.55
2018-10-17T04:30:37.854Z,101402.72
2018-10-17T04:31:40.498Z,101402.25
2018-10-17T04:32:43.142Z,101406.73
2018-10-17T04:33:45.786Z,101394.23
2018-10-17T04:34:48.450Z,101404.92
2018-10-17T04:35:51.311Z,101399.07
2018-10-17T04:36:53.978Z,101395.92
2018-10-17T04:37:56.732Z,101383.89
2018-10-17T04:38:59.362Z,101381.69
2018-10-17T04:40:02.049Z,101380.86
2018-10-17T04:41:04.821Z,101369.18
2018-10-17T04:42:07.485Z,101361.98
2018-10-17T04:43:10.155Z,101357.14
2018-10-17T04:44:12.858Z,101349.48
2018-10-17T04:45:15.503Z,101298.45
2018-10-17T04:46:18.159Z,101354.33
2018-10-17T04:47:20.796Z,101347.64
2018-10-17T04:48:23.510Z,101350.31
2018-10-17T04:49:26.171Z,101354.69
2018-10-17T04:50:28.812Z,101347.64
2018-10-17T04:51:31.543Z,101352.00
2018-10-17T04:52:34.190Z,101348.26
2018-10-17T04:53:36.850Z,101353.34
2018-10-17T04:54:39.511Z,101347.99
2018-10-17T04:55:42.159Z,101341.81
2018-10-17T04:56:44.844Z,101342.17
2018-10-17T04:57:47.486Z,101341.30
2018-10-17T04:58:50.129Z,101334.63
2018-10-17T04:59:52.778Z,101335.96
2018-10-17T05:00:55.452Z,101337.30
2018-10-17T05:01:58.221Z,101325.77
2018-10-17T05:03:00.858Z,101333.28
2018-10-17T05:04:03.543Z,101334.98
2018-10-17T05:05:06.344Z,101329.27
2018-10-17T05:06:08.998Z,101328.91
2018-10-17T05:07:11.952Z,101334.27
2018-10-17T05:08:14.595Z,101333.80
2018-10-17T05:09:17.280Z,101338.27
2018-10-17T05:10:19.930Z,101340.59
2018-10-17T05:11:22.567Z,101341.93
2018-10-17T05:12:25.297Z,101332.92
2018-10-17T05:13:28.139Z,101332.57
2018-10-17T05:14:30.786Z,101321.87
2018-10-17T05:15:33.426Z,101320.53
2018-10-17T05:16:36.218Z,101314.71
2018-10-17T05:17:38.921Z,101309.84
2018-10-17T05:18:41.558Z,101310.34
2018-10-17T05:19:44.203Z,101307.16
2018-10-17T05:20:46.909Z,101304.48
2018-10-17T05:21:49.549Z,101301.97
2018-10-17T05:22:52.319Z,101303.30
2018-10-17T05:23:54.963Z,101300.98
2018-10-17T05:24:57.660Z,101304.13
2018-10-17T05:26:00.290Z,101306.80
2018-10-17T05:27:02.955Z,101306.80
2018-10-17T05:28:05.718Z,101306.45
2018-10-17T05:29:08.451Z,101300.12
2018-10-17T05:30:11.050Z,101296.97
2018-10-17T05:31:13.776Z,101297.95
2018-10-17T05:32:16.370Z,101300.48
2018-10-17T05:33:19.018Z,101303.15
2018-10-17T05:34:21.662Z,101294.77
2018-10-17T05:35:24.299Z,101303.15
2018-10-17T05:36:26.946Z,101284.87
2018-10-17T05:37:29.725Z,101300.00
2018-10-17T05:38:32.326Z,101295.63
2018-10-17T05:39:34.968Z,101288.44
2018-10-17T05:40:37.614Z,101284.94
2018-10-17T05:41:40.289Z,101280.42
2018-10-17T05:42:42.938Z,101274.71
2018-10-17T05:43:45.632Z,101278.97
2018-10-17T05:44:48.282Z,101272.75
2018-10-17T05:45:50.924Z,101279.44
2018-10-17T05:46:53.585Z,101283.45
2018-10-17T05:47:56.238Z,101279.95
2018-10-17T05:48:58.987Z,101272.39
2018-10-17T05:50:01.686Z,101265.70
2018-10-17T05:51:04.550Z,101267.67
2018-10-17T05:52:07.207Z,101263.90
2018-10-17T05:53:09.882Z,101261.70
2018-10-17T05:54:12.568Z,101259.89
2018-10-17T05:55:15.262Z,101253.67
2018-10-17T05:56:17.896Z,101251.51
2018-10-17T05:57:20.550Z,101249.66
2018-10-17T05:58:23.212Z,101250.64
2018-10-17T05:59:25.910Z,101250.17
2018-10-17T06:00:28.563Z,101255.52
2018-10-17T06:01:31.269Z,101248.83
2018-10-17T06:02:35.099Z,101255.99
2018-10-17T06:03:37.650Z,101258.66
2018-10-17T06:04:40.350Z,101255.99
2018-10-17T06:05:42.986Z,101264.37
2018-10-17T06:06:45.653Z,101267.55
2018-10-17T06:07:48.295Z,101264.73
2018-10-17T06:08:50.966Z,101255.01
2018-10-17T06:09:53.738Z,101252.69
2018-10-17T06:10:56.411Z,101250.64
2018-10-17T06:11:59.078Z,101254.54
2018-10-17T06:13:02.040Z,101254.18
2018-10-17T06:14:04.779Z,101256.34
2018-10-17T06:15:07.490Z,101245.65
2018-10-17T06:16:10.190Z,101240.30
2018-10-17T06:17:12.855Z,101250.02
2018-10-17T06:18:15.498Z,101255.01
2018-10-17T06:19:18.141Z,101249.30
2018-10-17T06:20:20.798Z,101261.34
2018-10-17T06:21:23.491Z,101259.02
2018-10-17T06:22:26.122Z,101235.79
2018-10-17T06:23:28.750Z,101260.36
2018-10-17T06:24:31.391Z,101253.31
2018-10-17T06:25:34.154Z,101247.97
2018-10-17T06:26:37.094Z,101242.63
2018-10-17T06:27:39.718Z,101248.33
2018-10-17T06:28:42.374Z,101239.47
2018-10-17T06:29:45.042Z,101230.94
2018-10-17T06:30:47.846Z,101232.28
2018-10-17T06:31:50.434Z,101226.57
2018-10-17T06:32:53.083Z,101226.57
2018-10-17T06:33:55.803Z,101226.93
2018-10-17T06:34:58.480Z,101234.13
2018-10-17T06:36:01.172Z,101234.13
2018-10-17T06:37:04.282Z,101237.63
2018-10-17T06:38:06.934Z,101226.57
2018-10-17T06:39:10.965Z,101229.25
2018-10-17T06:40:13.638Z,101233.27
2018-10-17T06:41:16.624Z,101247.50
2018-10-17T06:42:19.236Z,101249.81
2018-10-17T06:43:21.917Z,101251.16
2018-10-17T06:44:24.562Z,101249.30
2018-10-17T06:45:27.210Z,101245.30
2018-10-17T06:46:29.895Z,101242.63
2018-10-17T06:47:32.555Z,101250.02
2018-10-17T06:48:35.202Z,101246.16
2018-10-17T06:49:37.870Z,101253.67
2018-10-17T06:50:40.506Z,101256.34
2018-10-17T06:51:43.154Z,101258.55
2018-10-17T06:52:45.814Z,101255.01
2018-10-17T06:53:48.497Z,101256.70
2018-10-17T06:54:51.254Z,101253.05
2018-10-17T06:55:53.934Z,101252.69
2018-10-17T06:56:56.594Z,101254.03
2018-10-17T06:57:59.234Z,101251.71
2018-10-17T06:59:01.891Z,101256.70
2018-10-17T07:00:05.642Z,101250.02
2018-10-17T07:01:08.301Z,101247.23
2018-10-17T07:02:11.029Z,101247.70
2018-10-17T07:03:13.642Z,101254.74
2018-10-17T07:04:16.286Z,101247.34
2018-10-17T07:05:18.931Z,101246.87
2018-10-17T07:06:21.626Z,101253.05
2018-10-17T07:07:24.322Z,101250.37
2018-10-17T07:08:27.065Z,101252.58
2018-10-17T07:09:29.722Z,101250.73
2018-10-17T07:10:32.390Z,101245.38
2018-10-17T07:11:35.074Z,101244.05
2018-10-17T07:12:37.733Z,101252.42
2018-10-17T07:13:40.378Z,101251.09
2018-10-17T07:14:43.266Z,101247.78
2018-10-17T07:15:45.930Z,101236.73
2018-10-17T07:16:48.602Z,101231.73
2018-10-17T07:17:51.252Z,101234.77
2018-10-17T07:18:53.956Z,101232.09
2018-10-17T07:19:56.590Z,101230.76
2018-10-17T07:20:59.246Z,101228.95
2018-10-17T07:22:01.902Z,101231.97
2018-10-17T07:23:04.855Z,101211.42
2018-10-17T07:24:07.518Z,101241.34
2018-10-17T07:25:10.244Z,101243.15
2018-10-17T07:26:12.834Z,101248.85
2018-10-17T07:27:15.538Z,101245.20
2018-10-17T07:28:18.243Z,101246.18
2018-10-17T07:29:20.910Z,101241.70
2018-10-17T07:30:23.555Z,101243.86
2018-10-17T07:31:26.235Z,101243.86
2018-10-17T07:32:28.898Z,101247.88
2018-10-17T07:33:31.532Z,101243.86
2018-10-17T07:34:34.198Z,101246.18
2018-10-17T07:35:36.968Z,101239.84
2018-10-17T07:36:39.567Z,101239.84
2018-10-17T07:37:42.205Z,101239.84
2018-10-17T07:38:44.862Z,101240.71
2018-10-17T07:39:47.503Z,101230.48
2018-10-17T07:40:50.142Z,101227.81
2018-10-17T07:41:52.804Z,101231.83
2018-10-17T07:42:55.447Z,101246.06
2018-10-17T07:43:58.112Z,101245.55
2018-10-17T07:45:00.763Z,101242.05
2018-10-17T07:46:03.477Z,101238.04
2018-10-17T07:47:06.366Z,101240.20
2018-10-17T07:48:09.118Z,101230.84
2018-10-17T07:49:11.718Z,101227.34
2018-10-17T07:50:14.346Z,101226.00
2018-10-17T07:51:17.006Z,101224.16
2018-10-17T07:52:19.657Z,101221.13
2018-10-17T07:53:22.333Z,101222.34
2018-10-17T07:54:24.983Z,101212.13
2018-10-17T07:55:27.638Z,101214.44
2018-10-17T07:56:30.306Z,101217.98
2018-10-17T07:57:32.951Z,101220.30
2018-10-17T07:58:35.601Z,101224.16
2018-10-17T07:59:38.270Z,101226.98
2018-10-17T08:00:40.918Z,101231.00
2018-10-17T08:01:43.582Z,101233.52
2018-10-17T08:02:46.238Z,101229.50
2018-10-17T08:03:48.902Z,101225.49
2018-10-17T08:04:51.547Z,101220.14
2018-10-17T08:05:54.217Z,101227.19
2018-10-17T08:06:56.870Z,101225.49
2018-10-17T08:07:59.518Z,101227.19
2018-10-17T08:09:02.255Z,101227.19
2018-10-17T08:10:06.412Z,101220.85
2018-10-17T08:11:09.055Z,101226.56
2018-10-17T08:12:11.739Z,101229.86
2018-10-17T08:13:14.403Z,101230.57
2018-10-17T08:14:17.105Z,101222.70
2018-10-17T08:15:19.750Z,101227.06
2018-10-17T08:16:22.645Z,101228.05
2018-10-17T08:17:25.307Z,101232.42
2018-10-17T08:18:27.974Z,101232.42
2018-10-17T08:19:30.631Z,101230.57
2018-10-17T08:20:33.270Z,101229.74
2018-10-17T08:21:35.911Z,101231.44
2018-10-17T08:22:38.832Z,101236.28
2018-10-17T08:23:41.559Z,101229.11
2018-10-17T08:24:44.214Z,101228.25
2018-10-17T08:25:46.871Z,101228.61
2018-10-17T08:26:49.535Z,101227.27
2018-10-17T08:27:52.194Z,101224.95
2018-10-17T08:28:54.866Z,101215.11
2018-10-17T08:29:57.539Z,101220.46
2018-10-17T08:31:00.203Z,101220.34
2018-10-17T08:32:02.910Z,101219.48
2018-10-17T08:33:06.010Z,101214.98
2018-10-17T08:34:08.650Z,101219.00
2018-10-17T08:35:11.328Z,101212.80
2018-10-17T08:36:14.125Z,101208.30
2018-10-17T08:37:17.084Z,101204.29
2018-10-17T08:38:19.352Z,101209.64
2018-10-17T08:39:22.025Z,101205.63
2018-10-17T08:40:24.678Z,101209.13
2018-10-17T08:41:27.318Z,101210.12
2018-10-17T08:42:30.006Z,101215.82
2018-10-17T08:43:32.654Z,101213.03
2018-10-17T08:44:35.302Z,101194.42
2018-10-17T08:45:37.942Z,101193.44
2018-10-17T08:46:40.618Z,101198.67
2018-10-17T08:47:43.577Z,101196.97
2018-10-17T08:48:46.456Z,101193.80
2018-10-17T08:49:49.094Z,101197.33
2018-10-17T08:50:51.793Z,101195.98
2018-10-17T08:51:54.403Z,101190.64
2018-10-17T08:52:57.031Z,101190.64
2018-10-17T08:53:59.678Z,101188.80
2018-10-17T08:55:02.320Z,101183.95
2018-10-17T08:56:05.218Z,101182.61
2018-10-17T08:57:07.879Z,101182.11
2018-10-17T08:58:10.564Z,101178.95
2018-10-17T08:59:13.242Z,101174.94
2018-10-17T09:00:15.926Z,101177.47
2018-10-17T09:01:18.571Z,101177.97
2018-10-17T09:02:21.316Z,101174.79
2018-10-17T09:03:24.014Z,101176.64
2018-10-17T09:04:26.661Z,101173.45
2018-10-17T09:05:29.302Z,101172.97
2018-10-17T09:06:31.956Z,101169.44
2018-10-17T09:07:34.632Z,101173.33
2018-10-17T09:08:37.282Z,101174.67
2018-10-17T09:09:39.919Z,101171.99
2018-10-17T09:10:42.583Z,101173.33
2018-10-17T09:11:45.239Z,101166.28
2018-10-17T09:12:47.903Z,101165.30
2018-10-17T09:13:50.554Z,101164.44
2018-10-17T09:14:53.367Z,101158.61
2018-10-17T09:15:56.062Z,101165.30
2018-10-17T09:16:58.670Z,101156.92
2018-10-17T09:18:01.332Z,101163.97
2018-10-17T09:19:04.022Z,101164.09
2018-10-17T09:20:08.018Z,101167.98
2018-10-17T09:21:10.630Z,101174.31
2018-10-17T09:22:13.433Z,101168.45
2018-10-17T09:23:15.806Z,101174.31
2018-10-17T09:24:18.566Z,101167.27
2018-10-17T09:25:21.254Z,101156.57
2018-10-17T09:26:23.858Z,101157.91
2018-10-17T09:27:26.503Z,101156.41
2018-10-17T09:28:29.148Z,101149.88
2018-10-17T09:29:31.806Z,101142.21
2018-10-17T09:30:34.600Z,101140.88
2018-10-17T09:31:37.171Z,101135.52
2018-10-17T09:32:39.806Z,101143.55
2018-10-17T09:33:42.482Z,101140.52
2018-10-17T09:34:45.135Z,101149.73
2018-10-17T09:35:47.842Z,101143.55
2018-10-17T09:36:50.493Z,101142.21
2018-10-17T09:37:53.143Z,101150.59
2018-10-17T09:38:55.802Z,101152.05
2018-10-17T09:39:58.503Z,101160.94
2018-10-17T09:41:01.181Z,101154.25
2018-10-17T09:42:03.973Z,101151.06
2018-10-17T09:43:06.618Z,101149.25
2018-10-17T09:44:09.270Z,101153.74
2018-10-17T09:45:11.938Z,101154.25
2018-10-17T09:46:14.743Z,101152.76
2018-10-17T09:47:17.310Z,101167.12
2018-10-17T09:48:20.054Z,101167.12
2018-10-17T09:49:22.712Z,101165.30
2018-10-17T09:50:25.350Z,101167.12
2018-10-17T09:51:28.174Z,101167.00
2018-10-17T09:52:30.806Z,101166.64
2018-10-17T09:53:33.502Z,101155.43
2018-10-17T09:54:36.155Z,101150.59
2018-10-17T09:55:38.838Z,101142.05
2018-10-17T09:56:41.558Z,101141.22
2018-10-17T09:57:44.250Z,101135.88
2018-10-17T09:58:47.192Z,101139.53
2018-10-17T09:59:49.923Z,101144.38
2018-10-17T10:00:58.250Z,101141.86
2018-10-17T10:02:00.887Z,101152.55
2018-10-17T10:03:03.587Z,101155.23
2018-10-17T10:04:07.109Z,101152.05
2018-10-17T10:05:09.747Z,101153.74
2018-10-17T10:06:12.546Z,101140.99
2018-10-17T10:07:15.142Z,101140.88
2018-10-17T10:08:17.789Z,101126.63
2018-10-17T10:09:20.430Z,101128.33
2018-10-17T10:10:23.128Z,101126.16
2018-10-17T10:11:25.794Z,101132.69
2018-10-17T10:12:28.535Z,101124.82
2018-10-17T10:13:31.182Z,101134.89
2018-10-17T10:14:33.914Z,101134.89
2018-10-17T10:15:36.582Z,101130.52
2018-10-17T10:16:39.227Z,101125.17
2018-10-17T10:17:42.007Z,101123.33
2018-10-17T10:18:44.600Z,101120.66
2018-10-17T10:19:47.255Z,101120.17
2018-10-17T10:20:50.112Z,101125.02
2018-10-17T10:21:52.812Z,101119.31
2018-10-17T10:22:55.532Z,101120.53
2018-10-17T10:23:58.643Z,101121.98
2018-10-17T10:25:01.364Z,101113.84
2018-10-17T10:26:04.015Z,101122.34
2018-10-17T10:27:06.740Z,101125.52
2018-10-17T10:28:09.632Z,101122.85
2018-10-17T10:29:12.210Z,101124.19
2018-10-17T10:30:15.129Z,101121.52
2018-10-17T10:31:17.862Z,101119.19
2018-10-17T10:32:20.499Z,101123.68
2018-10-17T10:33:23.277Z,101125.88
2018-10-17T10:34:25.948Z,101121.00
2018-10-17T10:35:28.822Z,101116.98
2018-10-17T10:36:31.460Z,101120.17
2018-10-17T10:37:34.092Z,101121.52
2018-10-17T10:38:36.863Z,101118.84
2018-10-17T10:39:39.504Z,101121.86
2018-10-17T10:40:42.248Z,101129.89
2018-10-17T10:41:44.842Z,101124.19
2018-10-17T10:42:47.713Z,101120.53
2018-10-17T10:43:50.510Z,101113.48
2018-10-17T10:44:53.197Z,101115.17
2018-10-17T10:45:55.852Z,101121.00
2018-10-17T10:46:58.557Z,101116.16
2018-10-17T10:48:01.233Z,101110.81
2018-10-17T10:49:04.397Z,101113.33
2018-10-17T10:50:08.329Z,101117.85
2018-10-17T10:51:10.996Z,101113.84
2018-10-17T10:52:13.600Z,101080.70
2018-10-17T10:53:16.259Z,101112.98
2018-10-17T10:54:19.112Z,101110.30
2018-10-17T10:55:21.727Z,101106.64
2018-10-17T10:56:24.370Z,101107.63
2018-10-17T10:57:27.019Z,101104.13
2018-10-17T10:58:29.842Z,101108.97
2018-10-17T10:59:32.635Z,101107.15
2018-10-17T11:00:35.126Z,101100.46
2018-10-17T11:01:37.775Z,101103.48
2018-10-17T11:02:40.428Z,101095.46
2018-10-17T11:03:43.108Z,101092.79
2018-10-17T11:04:45.833Z,101082.09
2018-10-17T11:05:48.624Z,101078.55
2018-10-17T11:06:51.158Z,101082.91
2018-10-17T11:07:53.841Z,101087.44
2018-10-17T11:08:56.494Z,101078.42
2018-10-17T11:09:59.147Z,101087.44
2018-10-17T11:11:01.851Z,101092.79
2018-10-17T11:12:04.699Z,101087.44
2018-10-17T11:13:07.731Z,101080.75
2018-10-17T11:14:10.701Z,101078.07
2018-10-17T11:15:13.119Z,101085.11
2018-10-17T11:16:15.830Z,101076.22
2018-10-17T11:17:18.478Z,101074.06
2018-10-17T11:18:21.137Z,101077.44
2018-10-17T11:19:23.795Z,101074.41
2018-10-17T11:20:26.490Z,101077.91
2018-10-17T11:21:29.245Z,101081.09
2018-10-17T11:22:31.905Z,101081.93
2018-10-17T11:23:34.559Z,101081.09
2018-10-17T11:24:37.204Z,101080.11
2018-10-17T11:25:39.926Z,101089.48
2018-10-17T11:26:42.619Z,101080.47
2018-10-17T11:27:45.388Z,101076.10
2018-10-17T11:28:48.034Z,101077.80
2018-10-17T11:29:50.815Z,101071.58
2018-10-17T11:30:53.578Z,101072.91
2018-10-17T11:31:56.337Z,101076.80
2018-10-17T11:32:58.938Z,101070.12
2018-10-17T11:34:01.627Z,101072.44
2018-10-17T11:35:04.881Z,101066.58
2018-10-17T11:36:07.567Z,101064.77
2018-10-17T11:37:10.219Z,101062.09
2018-10-17T11:38:12.938Z,101061.10
2018-10-17T11:39:15.703Z,101062.09
2018-10-17T11:40:18.270Z,101055.24
2018-10-17T11:41:21.928Z,101058.43
2018-10-17T11:42:24.526Z,101053.42
2018-10-17T11:43:27.176Z,101049.41
2018-10-17T11:44:29.832Z,101052.44
2018-10-17T11:45:32.494Z,101048.91
2018-10-17T11:46:35.262Z,101053.78
2018-10-17T11:47:37.977Z,101055.47
2018-10-17T11:48:40.625Z,101044.77
2018-10-17T11:49:43.282Z,101038.43
2018-10-17T11:50:45.928Z,101036.23
2018-10-17T11:51:48.582Z,101039.64
2018-10-17T11:52:51.233Z,101042.80
2018-10-17T11:53:54.157Z,101043.66
2018-10-17T11:54:56.802Z,101040.82
2018-10-17T11:55:59.459Z,101043.02